createdAt,value
2019-04-05T00:01:42.206Z,12.90
2019-04-05T00:04:22.277Z,13.43
2019-04-05T00:07:02.378Z,12.77
2019-04-05T00:09:42.763Z,12.83
2019-04-05T00:12:22.758Z,13.00
2019-04-05T00:15:14.584Z,12.70
2019-04-05T00:17:43.490Z,12.43
2019-04-05T00:20:23.480Z,12.53
2019-04-05T00:23:03.692Z,13.20
2019-04-05T00:25:42.891Z,12.57
2019-04-05T00:28:22.979Z,12.07
2019-04-05T00:31:02.996Z,12.77
2019-04-05T00:33:43.002Z,12.73
2019-04-05T00:36:23.182Z,11.97
2019-04-05T00:39:03.258Z,11.50
2019-04-05T00:41:42.532Z,13.10
2019-04-05T00:44:21.787Z,11.93
2019-04-05T00:47:01.918Z,11.90
2019-04-05T00:49:41.688Z,12.63
2019-04-05T00:52:21.710Z,12.77
2019-04-05T00:55:01.237Z,11.57
2019-04-05T00:57:40.958Z,11.47
2019-04-05T01:00:21.003Z,12.43
2019-04-05T01:03:01.059Z,12.43
2019-04-05T01:05:41.159Z,12.43
2019-04-05T01:08:21.018Z,12.83
2019-04-05T01:10:48.131Z,12.10
2019-04-05T01:13:34.573Z,12.47
2019-04-05T01:16:21.451Z,11.87
2019-04-05T01:19:08.465Z,12.10
2019-04-05T01:21:54.986Z,13.73
2019-04-05T01:24:41.610Z,13.33
2019-04-05T01:27:28.773Z,12.60
2019-04-05T01:30:15.398Z,13.00
2019-04-05T01:32:54.753Z,12.43
2019-04-05T01:35:34.918Z,13.40
2019-04-05T01:38:15.094Z,13.47
2019-04-05T01:40:55.264Z,14.27
2019-04-05T01:43:35.392Z,12.47
2019-04-05T01:46:14.730Z,12.63
2019-04-05T01:48:54.914Z,12.97
2019-04-05T01:51:34.683Z,13.23
2019-04-05T01:54:15.155Z,12.97
2019-04-05T01:56:54.957Z,13.13
2019-04-05T01:59:34.822Z,13.50
2019-04-05T02:02:14.824Z,13.70
2019-04-05T02:04:54.923Z,13.77
2019-04-05T02:07:34.979Z,13.30
2019-04-05T02:10:15.052Z,13.53
2019-04-05T02:12:55.829Z,13.33
2019-04-05T02:15:36.272Z,13.30
2019-04-05T02:18:15.926Z,12.80
2019-04-05T02:20:42.920Z,13.07
2019-04-05T02:23:29.449Z,13.83
2019-04-05T02:25:56.423Z,13.33
2019-04-05T02:28:43.442Z,13.73
2019-04-05T02:31:23.611Z,13.43
2019-04-05T02:34:02.829Z,12.80
2019-04-05T02:36:42.815Z,12.80
2019-04-05T02:39:22.842Z,13.13
2019-04-05T02:42:03.070Z,13.23
2019-04-05T02:44:42.666Z,14.10
2019-04-05T02:47:22.694Z,13.47
2019-04-05T02:50:02.692Z,14.37
2019-04-05T02:52:42.589Z,14.10
2019-04-05T02:55:22.620Z,14.80
2019-04-05T02:58:01.838Z,14.63
2019-04-05T03:00:42.261Z,15.93
2019-04-05T03:03:22.011Z,14.57
2019-04-05T03:06:02.051Z,13.73
2019-04-05T03:08:41.989Z,14.80
2019-04-05T03:11:21.473Z,14.50
2019-04-05T03:14:01.422Z,14.17
2019-04-05T03:16:42.141Z,13.30
2019-04-05T03:19:21.533Z,14.93
2019-04-05T03:22:01.601Z,13.27
2019-04-05T03:24:41.637Z,14.47
2019-04-05T03:27:21.702Z,14.33
2019-04-05T03:30:29.677Z,14.20
2019-04-05T03:33:22.053Z,14.00
2019-04-05T03:36:02.666Z,13.83
2019-04-05T03:38:42.719Z,14.07
2019-04-05T03:41:22.840Z,14.20
2019-04-05T03:44:03.128Z,16.47
2019-04-05T03:46:55.657Z,14.60
2019-04-05T03:49:12.384Z,14.97
2019-04-05T03:51:59.292Z,15.13
2019-04-05T03:54:45.867Z,14.23
2019-04-05T03:57:32.371Z,14.90
2019-04-05T04:00:18.972Z,16.77
2019-04-05T04:03:05.686Z,16.17
2019-04-05T04:05:52.293Z,16.47
2019-04-05T04:08:38.998Z,18.40
2019-04-05T04:11:25.499Z,17.97
2019-04-05T04:14:12.101Z,16.97
2019-04-05T04:17:11.576Z,16.70
2019-04-05T04:19:47.012Z,18.10
2019-04-05T04:22:33.526Z,17.13
2019-04-05T04:25:20.410Z,17.07
2019-04-05T04:28:06.929Z,19.40
2019-04-05T04:30:53.448Z,18.50
2019-04-05T04:33:32.600Z,19.13
2019-04-05T04:35:59.866Z,18.60
2019-04-05T04:38:46.353Z,18.97
2019-04-05T04:41:33.109Z,18.30
2019-04-05T04:44:19.605Z,19.47
2019-04-05T04:47:06.241Z,18.60
2019-04-05T04:50:14.176Z,20.83
2019-04-05T04:53:00.708Z,19.97
2019-04-05T04:55:47.214Z,21.90
2019-04-05T04:58:33.722Z,20.40
2019-04-05T05:01:20.285Z,22.97
2019-04-05T05:04:08.448Z,21.27
2019-04-05T05:06:55.591Z,22.30
2019-04-05T05:09:42.094Z,23.13
2019-04-05T05:12:28.668Z,22.63
2019-04-05T05:15:15.198Z,22.30
2019-04-05T05:18:01.892Z,21.53
2019-04-05T05:20:48.427Z,21.77
2019-04-05T05:23:35.309Z,21.63
2019-04-05T05:26:21.918Z,23.10
2019-04-05T05:29:29.880Z,21.57
2019-04-05T05:32:09.867Z,25.23
2019-04-05T05:35:01.416Z,23.60
2019-04-05T05:37:32.826Z,21.00
2019-04-05T05:40:12.663Z,24.57
2019-04-05T05:42:52.754Z,22.07
2019-04-05T05:45:31.998Z,23.67
2019-04-05T05:47:58.969Z,23.50
2019-04-05T05:50:45.606Z,23.10
2019-04-05T05:53:32.118Z,27.00
2019-04-05T05:56:18.542Z,22.97
2019-04-05T05:59:05.050Z,23.53
2019-04-05T06:01:51.493Z,24.03
2019-04-05T06:04:37.911Z,22.13
2019-04-05T06:07:24.341Z,21.70
2019-04-05T06:10:11.244Z,24.87
2019-04-05T06:15:52.329Z,26.00
2019-04-05T06:18:38.854Z,24.77
2019-04-05T06:21:25.260Z,22.27
2019-04-05T06:24:11.773Z,20.67
2019-04-05T06:26:58.438Z,21.87
2019-04-05T06:29:44.971Z,23.00
2019-04-05T06:32:24.983Z,21.57
2019-04-05T06:35:05.075Z,27.80
2019-04-05T06:37:45.058Z,25.90
2019-04-05T06:40:25.099Z,22.47
2019-04-05T06:43:06.697Z,22.37
2019-04-05T06:45:46.352Z,19.73
2019-04-05T06:48:29.128Z,20.87
2019-04-05T06:51:07.646Z,21.63
2019-04-05T06:53:47.720Z,27.60
2019-04-05T06:56:27.930Z,24.20
2019-04-05T06:58:54.698Z,18.07
2019-04-05T07:01:41.196Z,18.93
2019-04-05T07:04:27.616Z,18.53
2019-04-05T07:06:54.483Z,19.17
2019-04-05T07:09:40.889Z,18.87
2019-04-05T07:12:27.544Z,16.53
2019-04-05T07:15:14.037Z,16.20
2019-04-05T07:18:00.681Z,16.73
2019-04-05T07:20:47.081Z,19.33
2019-04-05T07:23:33.675Z,16.93
2019-04-05T07:26:21.186Z,17.87
2019-04-05T07:29:08.887Z,17.70
2019-04-05T07:31:48.727Z,17.17
2019-04-05T07:34:27.902Z,16.37
2019-04-05T07:37:07.121Z,15.80
2019-04-05T07:39:47.424Z,14.77
2019-04-05T07:42:27.583Z,16.23
2019-04-05T07:45:07.656Z,16.63
2019-04-05T07:47:47.738Z,14.93
2019-04-05T07:50:27.810Z,13.40
2019-04-05T07:53:09.315Z,14.37
2019-04-05T07:55:49.142Z,14.70
2019-04-05T07:58:29.137Z,16.23
2019-04-05T08:01:09.183Z,14.17
2019-04-05T08:03:49.172Z,13.03
2019-04-05T08:06:28.414Z,14.47
2019-04-05T08:09:07.754Z,15.40
2019-04-05T08:11:47.922Z,16.27
2019-04-05T08:14:28.050Z,15.77
2019-04-05T08:17:08.049Z,14.47
2019-04-05T08:19:47.259Z,13.80
2019-04-05T08:22:27.414Z,15.37
2019-04-05T08:25:07.542Z,15.73
2019-04-05T08:27:47.444Z,14.67
2019-04-05T08:30:26.782Z,16.13
2019-04-05T08:33:06.775Z,14.10
2019-04-05T08:35:45.954Z,13.77
2019-04-05T08:38:25.456Z,14.50
2019-04-05T08:41:05.309Z,14.93
2019-04-05T08:43:47.213Z,16.83
2019-04-05T08:46:27.097Z,15.57
2019-04-05T08:49:11.078Z,15.00
2019-04-05T08:51:49.291Z,16.53
2019-04-05T08:57:30.269Z,16.20
2019-04-05T09:00:10.237Z,16.87
2019-04-05T09:02:50.301Z,17.30
2019-04-05T09:05:33.156Z,17.87
2019-04-05T09:08:12.143Z,18.37
2019-04-05T09:10:54.562Z,18.27
2019-04-05T09:13:33.304Z,17.37
2019-04-05T09:16:13.343Z,16.23
2019-04-05T09:18:53.453Z,21.00
2019-04-05T09:21:33.053Z,16.50
2019-04-05T09:24:12.914Z,18.60
2019-04-05T09:26:54.491Z,18.77
2019-04-05T09:29:21.397Z,18.13
2019-04-05T09:32:00.993Z,16.93
2019-04-05T09:34:41.066Z,18.90
2019-04-05T09:37:20.380Z,15.77
2019-04-05T09:40:00.761Z,16.87
2019-04-05T09:42:40.536Z,19.10
2019-04-05T09:45:20.768Z,17.70
2019-04-05T09:48:00.591Z,16.93
2019-04-05T09:50:40.773Z,16.20
2019-04-05T09:53:07.653Z,16.33
2019-04-05T09:55:54.196Z,17.27
2019-04-05T09:58:40.593Z,20.67
2019-04-05T10:01:27.127Z,17.53
2019-04-05T10:04:13.531Z,16.73
2019-04-05T10:06:59.935Z,16.83
2019-04-05T10:09:46.445Z,16.73
2019-04-05T10:12:32.855Z,17.80
2019-04-05T10:15:21.658Z,16.00
2019-04-05T10:18:07.841Z,17.20
2019-04-05T10:20:54.347Z,17.13
2019-04-05T10:23:21.083Z,18.47
2019-04-05T10:26:07.594Z,19.32
2019-04-05T10:28:34.346Z,15.97
2019-04-05T10:31:20.767Z,18.40
2019-04-05T10:34:00.513Z,15.77
2019-04-05T10:36:40.602Z,16.90
2019-04-05T10:39:20.715Z,15.83
2019-04-05T10:42:03.675Z,16.13
2019-04-05T10:44:41.025Z,19.75
2019-04-05T10:47:07.814Z,16.17
2019-04-05T10:50:03.142Z,17.27
2019-04-05T10:52:42.813Z,16.62
2019-04-05T10:55:29.200Z,16.97
2019-04-05T10:58:15.717Z,16.27
2019-04-05T11:01:02.204Z,17.77
2019-04-05T11:03:28.966Z,16.70
2019-04-05T11:06:15.706Z,18.05
2019-04-05T11:11:56.565Z,17.32
2019-04-05T11:14:23.304Z,19.77
2019-04-05T11:17:10.149Z,17.92
2019-04-05T11:19:56.802Z,16.97
2019-04-05T11:22:46.402Z,17.43
2019-04-05T11:25:32.179Z,16.87
2019-04-05T11:28:18.954Z,16.70
2019-04-05T11:31:05.463Z,16.87
2019-04-05T11:33:45.421Z,18.60
2019-04-05T11:36:25.491Z,16.60
2019-04-05T11:39:05.794Z,18.63
2019-04-05T11:41:45.953Z,17.80
2019-04-05T11:44:25.924Z,19.03
2019-04-05T11:47:06.211Z,17.47
2019-04-05T11:49:46.277Z,19.20
2019-04-05T11:52:26.249Z,18.57
2019-04-05T11:55:05.425Z,18.07
2019-04-05T11:57:45.490Z,18.32
2019-04-05T12:03:24.373Z,16.80
2019-04-05T12:06:03.825Z,17.23
2019-04-05T12:08:43.843Z,17.07
2019-04-05T12:11:23.353Z,19.52
2019-04-05T12:14:03.030Z,18.40
2019-04-05T12:16:43.079Z,24.05
2019-04-05T12:19:23.137Z,17.85
2019-04-05T12:22:05.355Z,20.62
2019-04-05T12:24:47.498Z,24.07
2019-04-05T12:27:26.427Z,18.05
2019-04-05T12:30:06.571Z,18.10
2019-04-05T12:32:46.670Z,15.88
2019-04-05T12:35:27.954Z,34.60
2019-04-05T12:38:08.074Z,18.55
2019-04-05T12:40:47.304Z,18.42
2019-04-05T12:43:26.437Z,18.07
2019-04-05T12:46:06.549Z,18.05
2019-04-05T12:48:46.664Z,17.92
2019-04-05T12:51:26.589Z,17.60
2019-04-05T12:54:05.744Z,20.72
2019-04-05T12:56:45.885Z,16.48
2019-04-05T12:59:26.003Z,21.02
2019-04-05T13:02:06.122Z,19.27
2019-04-05T13:04:45.827Z,18.87
2019-04-05T13:07:26.070Z,18.73
2019-04-05T13:10:05.887Z,18.82
2019-04-05T13:12:46.070Z,32.88
2019-04-05T13:15:26.208Z,19.62
2019-04-05T13:18:06.347Z,19.20
2019-04-05T13:20:46.191Z,19.02
2019-04-05T13:23:25.385Z,19.87
2019-04-05T13:26:07.158Z,18.23
2019-04-05T13:28:48.583Z,18.48
2019-04-05T13:31:27.960Z,18.32
2019-04-05T13:34:08.098Z,18.87
2019-04-05T13:36:47.745Z,17.80
2019-04-05T13:39:29.721Z,17.70
2019-04-05T13:42:09.058Z,22.65
2019-04-05T13:44:48.917Z,25.48
2019-04-05T13:47:28.875Z,18.52
2019-04-05T13:50:11.423Z,18.32
2019-04-05T13:52:50.038Z,20.80
2019-04-05T13:55:30.218Z,18.90
2019-04-05T13:58:11.260Z,19.70
2019-04-05T14:00:38.737Z,16.65
2019-04-05T14:03:05.645Z,17.00
2019-04-05T14:05:32.525Z,16.52
2019-04-05T14:08:10.024Z,22.85
2019-04-05T14:10:28.189Z,17.50
2019-04-05T14:12:55.056Z,16.30
2019-04-05T14:15:21.947Z,16.27
2019-04-05T14:17:49.363Z,17.95
2019-04-05T14:20:19.638Z,20.57
2019-04-05T14:22:45.977Z,14.53
2019-04-05T14:25:13.256Z,14.55
2019-04-05T14:27:40.235Z,18.62
2019-04-05T14:30:07.232Z,16.27
2019-04-05T14:32:34.053Z,18.98
2019-04-05T14:35:00.974Z,16.00
2019-04-05T14:37:28.104Z,15.90
2019-04-05T14:39:55.039Z,15.50
2019-04-05T14:42:22.147Z,13.83
2019-04-05T14:44:49.167Z,15.40
2019-04-05T14:47:16.053Z,14.43
2019-04-05T14:49:42.849Z,14.93
2019-04-05T14:52:09.787Z,14.33
2019-04-05T14:54:36.753Z,15.13
2019-04-05T14:57:05.851Z,14.00
2019-04-05T14:59:32.880Z,14.85
2019-04-05T15:01:59.765Z,15.63
2019-04-05T15:04:26.534Z,13.88
2019-04-05T15:06:53.518Z,14.73
2019-04-05T15:09:24.860Z,15.00
2019-04-05T15:11:49.261Z,14.63
2019-04-05T15:14:16.386Z,15.13
2019-04-05T15:16:43.158Z,15.72
2019-04-05T15:19:09.930Z,14.80
2019-04-05T15:21:38.856Z,14.95
2019-04-05T15:24:05.350Z,16.20
2019-04-05T15:26:32.398Z,16.97
2019-04-05T15:28:59.278Z,18.40
2019-04-05T15:31:26.646Z,17.40
2019-04-05T15:33:55.595Z,15.85
2019-04-05T15:36:22.685Z,15.08
2019-04-05T15:38:49.732Z,17.50
2019-04-05T15:42:12.264Z,20.08
2019-04-05T15:44:39.070Z,16.30
2019-04-05T15:47:05.960Z,18.30
2019-04-05T15:49:32.816Z,17.55
2019-04-05T15:51:59.833Z,17.12
2019-04-05T15:54:29.050Z,16.67
2019-04-05T15:56:55.610Z,18.73
2019-04-05T15:59:22.492Z,18.30
2019-04-05T16:01:49.652Z,18.15
2019-04-05T16:04:16.503Z,20.52
2019-04-05T16:06:43.383Z,18.02
2019-04-05T16:09:14.964Z,16.67
2019-04-05T16:11:41.847Z,18.27
2019-04-05T16:14:08.876Z,20.27
2019-04-05T16:16:35.767Z,19.25
2019-04-05T16:19:02.908Z,19.17
2019-04-05T16:21:29.695Z,18.52
2019-04-05T16:23:56.884Z,21.15
2019-04-05T16:26:23.670Z,21.90
2019-04-05T16:28:50.447Z,19.30
2019-04-05T16:31:17.205Z,20.45
2019-04-05T16:33:44.035Z,18.73
2019-04-05T16:36:10.921Z,17.12
2019-04-05T16:38:37.680Z,16.97
2019-04-05T16:41:04.675Z,18.00
2019-04-05T16:43:31.545Z,16.75
2019-04-05T16:45:58.320Z,18.02
2019-04-05T16:48:25.103Z,18.70
2019-04-05T16:50:51.979Z,16.30
2019-04-05T16:53:19.064Z,16.62
2019-04-05T16:55:45.827Z,19.10
2019-04-05T16:58:12.632Z,18.10
2019-04-05T17:00:39.592Z,16.20
2019-04-05T17:03:06.678Z,18.40
2019-04-05T17:05:33.596Z,21.70
2019-04-05T17:08:00.388Z,30.62
2019-04-05T17:10:27.219Z,26.02
2019-04-05T17:12:53.987Z,21.68
2019-04-05T17:15:20.944Z,19.15
2019-04-05T17:17:47.944Z,18.37
2019-04-05T17:20:14.797Z,20.32
2019-04-05T17:22:41.637Z,19.20
2019-04-05T17:25:08.782Z,19.87
2019-04-05T17:27:36.080Z,20.52
2019-04-05T17:30:03.741Z,20.32
2019-04-05T17:32:30.905Z,19.37
2019-04-05T17:34:57.676Z,17.62
2019-04-05T17:37:26.643Z,19.37
2019-04-05T17:39:53.276Z,19.30
2019-04-05T17:42:20.068Z,18.52
2019-04-05T17:44:46.837Z,21.82
2019-04-05T17:47:13.956Z,20.52
2019-04-05T17:49:40.836Z,18.77
2019-04-05T17:52:07.665Z,20.00
2019-04-05T17:54:34.661Z,17.40
2019-04-05T17:57:01.532Z,19.42
2019-04-05T17:59:28.593Z,18.73
2019-04-05T18:01:55.561Z,17.82
2019-04-05T18:04:22.657Z,17.62
2019-04-05T18:06:49.709Z,20.57
2019-04-05T18:09:16.980Z,20.00
2019-04-05T18:11:44.396Z,18.30
2019-04-05T18:14:11.273Z,20.68
2019-04-05T18:16:38.280Z,19.00
2019-04-05T18:19:08.055Z,19.33
2019-04-05T18:21:34.843Z,19.70
2019-04-05T18:24:02.209Z,19.23
2019-04-05T18:26:29.083Z,21.07
2019-04-05T18:28:56.362Z,19.50
2019-04-05T18:31:23.665Z,19.43
2019-04-05T18:33:50.665Z,19.82
2019-04-05T18:36:17.496Z,20.05
2019-04-05T18:38:44.276Z,18.62
2019-04-05T18:41:11.412Z,22.42
2019-04-05T18:43:38.268Z,19.43
2019-04-05T18:46:05.263Z,19.20
2019-04-05T18:48:32.049Z,20.83
2019-04-05T18:50:58.902Z,21.40
2019-04-05T18:53:37.047Z,22.30
2019-04-05T18:55:54.899Z,21.67
2019-04-05T18:58:21.921Z,21.20
2019-04-05T19:00:49.036Z,21.47
2019-04-05T19:03:16.149Z,19.10
2019-04-05T19:05:42.935Z,18.20
2019-04-05T19:08:10.001Z,21.40
2019-04-05T19:10:37.620Z,21.17
2019-04-05T19:13:06.564Z,20.67
2019-04-05T19:15:33.321Z,20.17
2019-04-05T19:18:00.845Z,22.10
2019-04-05T19:20:27.856Z,21.73
2019-04-05T19:22:54.854Z,23.73
2019-04-05T19:25:21.976Z,23.83
2019-04-05T19:27:48.725Z,25.33
2019-04-05T19:50:07.620Z,21.33
2019-04-05T19:52:34.482Z,25.47
2019-04-05T19:55:01.600Z,27.03
2019-04-05T19:57:28.596Z,24.57
2019-04-05T19:59:55.408Z,27.60
2019-04-05T20:02:22.543Z,26.27
2019-04-05T20:04:49.303Z,23.47
2019-04-05T20:07:16.361Z,24.37
2019-04-05T20:09:43.132Z,23.87
2019-04-05T20:12:10.176Z,23.80
2019-04-05T20:14:36.939Z,25.75
2019-04-05T20:17:04.071Z,23.10
2019-04-05T20:19:30.956Z,23.80
2019-04-05T20:21:57.837Z,22.43
2019-04-05T20:24:24.794Z,23.47
2019-04-05T20:26:51.520Z,24.27
2019-04-05T20:29:18.546Z,25.07
2019-04-05T20:31:45.578Z,25.33
2019-04-05T20:34:12.344Z,26.03
2019-04-05T20:36:39.481Z,25.10
2019-04-05T20:39:06.634Z,25.30
2019-04-05T20:41:33.409Z,24.00
2019-04-05T20:44:00.423Z,24.03
2019-04-05T20:46:27.218Z,25.90
2019-04-05T20:48:54.219Z,27.10
2019-04-05T20:51:22.117Z,29.63
2019-04-05T20:53:49.625Z,26.40
2019-04-05T20:56:18.409Z,27.70
2019-04-05T20:58:45.433Z,25.33
2019-04-05T21:01:12.405Z,25.93
2019-04-05T21:03:39.424Z,26.10
2019-04-05T21:06:06.192Z,27.13
2019-04-05T21:08:33.229Z,26.43
2019-04-05T21:11:00.234Z,25.50
2019-04-05T21:13:27.261Z,29.53
2019-04-05T21:15:54.328Z,25.63
2019-04-05T21:18:21.408Z,28.00
2019-04-05T21:20:48.264Z,26.83
2019-04-05T21:23:15.044Z,25.03
2019-04-05T21:25:41.836Z,26.50
2019-04-05T21:28:08.727Z,25.07
2019-04-05T21:30:35.770Z,23.13
2019-04-05T21:33:02.671Z,25.23
2019-04-05T21:35:29.463Z,26.40
2019-04-05T21:37:56.261Z,26.37
2019-04-05T21:40:23.141Z,25.60
2019-04-05T21:42:49.902Z,27.03
2019-04-05T21:45:16.829Z,26.40
2019-04-05T21:47:43.950Z,26.23
2019-04-05T21:50:11.637Z,26.87
2019-04-05T21:52:38.626Z,26.30
2019-04-05T21:55:05.949Z,34.03
2019-04-05T21:57:32.728Z,29.77
2019-04-05T21:59:59.541Z,26.33
2019-04-05T22:02:26.324Z,24.10
2019-04-05T22:04:53.304Z,23.53
2019-04-05T22:07:20.159Z,27.93
2019-04-05T22:09:47.175Z,25.70
2019-04-05T22:12:14.149Z,25.20
2019-04-05T22:14:41.012Z,24.47
2019-04-05T22:17:07.949Z,25.93
2019-04-05T22:19:35.080Z,25.87
2019-04-05T22:22:01.874Z,26.13
2019-04-05T22:24:28.669Z,25.83
2019-04-05T22:26:55.708Z,29.10
2019-04-05T22:29:22.538Z,24.00
2019-04-05T22:31:49.421Z,25.40
2019-04-05T22:34:16.713Z,24.60
2019-04-05T22:36:43.724Z,25.90
2019-04-05T22:39:10.557Z,25.00
2019-04-05T22:41:37.379Z,29.13
2019-04-05T22:44:04.176Z,26.00
2019-04-05T22:46:30.965Z,24.97
2019-04-05T22:48:57.925Z,26.00
2019-04-05T22:51:24.691Z,26.60
2019-04-05T22:53:51.459Z,24.63
2019-04-05T22:56:18.625Z,27.83
2019-04-05T22:58:45.429Z,25.97
2019-04-05T23:01:12.574Z,28.07
2019-04-05T23:03:39.324Z,28.03
2019-04-05T23:06:06.140Z,31.17
2019-04-05T23:08:32.993Z,27.97
2019-04-05T23:10:59.752Z,27.73
2019-04-05T23:13:26.513Z,27.13
2019-04-05T23:15:53.288Z,29.80
2019-04-05T23:18:20.064Z,30.20
2019-04-05T23:20:46.964Z,30.07
2019-04-05T23:23:13.732Z,28.67
2019-04-05T23:25:40.787Z,33.03
2019-04-05T23:28:07.561Z,29.90
2019-04-05T23:30:34.316Z,32.30
2019-04-05T23:33:01.333Z,30.97
2019-04-05T23:35:28.441Z,28.23
2019-04-05T23:37:55.224Z,28.43
2019-04-05T23:40:22.216Z,29.23
2019-04-05T23:42:49.206Z,28.37
2019-04-05T23:45:16.118Z,27.77
2019-04-05T23:47:42.993Z,28.53
2019-04-05T23:50:09.968Z,27.43
2019-04-05T23:52:36.872Z,29.67
2019-04-05T23:55:04.316Z,29.73
2019-04-05T23:57:31.140Z,26.77
2019-04-05T23:59:57.968Z,26.67
